Terminal Aerodrome Forecast
Issued by NWS Lake Charles, LA

Home | Current Version | Previous Version | Text Only | Print | Product List | Glossary On
Versions: 1 2 3 4 5 6 7 8 9 10 11 12 13 14 15
000
FTUS44 KLCH 201700
TAFLFT
TAF
KLFT 201731Z 2018/2118 16008KT P6SM SCT050
     FM210000 VRB03KT P6SM SCT035
     FM211600 13012KT P6SM SCT040=

USA.gov is the U.S. government's official web portal to all federal, state and local government web resources and services.